createdAt,value
2022-12-24T00:00:10.137Z,607.3160
2022-12-24T00:00:21.310Z,605.6610
2022-12-24T00:00:32.447Z,610.0940
2022-12-24T00:00:43.721Z,608.9800
2022-12-24T00:00:55.075Z,607.8700
2022-12-24T00:01:06.158Z,607.8700
2022-12-24T00:01:17.248Z,606.2120
2022-12-24T00:01:28.303Z,609.5370
2022-12-24T00:01:39.353Z,606.7640
2022-12-24T00:01:50.425Z,615.7280
2022-12-24T00:02:01.591Z,606.2120
2022-12-24T00:02:12.831Z,604.0160
2022-12-24T00:02:24.115Z,609.5370
2022-12-24T00:02:35.607Z,602.9230
2022-12-24T00:02:47.101Z,604.0160
2022-12-24T00:02:58.333Z,606.7640
2022-12-24T00:03:09.749Z,604.0160
2022-12-24T00:03:21.354Z,605.1120
2022-12-24T00:03:32.778Z,605.1120
2022-12-24T00:03:43.958Z,604.5630
2022-12-24T00:03:55.021Z,607.3160
2022-12-24T00:04:06.098Z,606.2120
2022-12-24T00:04:17.256Z,607.3160
2022-12-24T00:04:28.287Z,606.2120
2022-12-24T00:04:39.350Z,606.7640
2022-12-24T00:04:53.034Z,605.1120
2022-12-24T00:05:07.399Z,598.0570
2022-12-24T00:05:18.491Z,601.2920
2022-12-24T00:05:29.533Z,602.9230
2022-12-24T00:05:40.608Z,602.3790
2022-12-24T00:05:51.684Z,602.3790
2022-12-24T00:06:02.727Z,602.3790
2022-12-24T00:06:13.795Z,603.4690
2022-12-24T00:06:24.918Z,603.4690
2022-12-24T00:06:36.008Z,601.8350
2022-12-24T00:06:47.087Z,604.5630
2022-12-24T00:06:58.157Z,602.3790
2022-12-24T00:07:09.298Z,602.3790
2022-12-24T00:07:20.405Z,605.1120
2022-12-24T00:07:31.440Z,605.6610
2022-12-24T00:07:42.511Z,605.1120
2022-12-24T00:07:53.600Z,605.1120
2022-12-24T00:08:04.648Z,604.0160
2022-12-24T00:08:15.720Z,601.8350
2022-12-24T00:08:26.795Z,605.1120
2022-12-24T00:08:37.860Z,602.9230
2022-12-24T00:08:48.920Z,607.3160
2022-12-24T00:08:59.993Z,604.0160
2022-12-24T00:09:11.065Z,607.8700
2022-12-24T00:09:22.143Z,607.3160
2022-12-24T00:09:33.176Z,607.8700
2022-12-24T00:09:44.238Z,607.3160
2022-12-24T00:09:55.307Z,604.0160
2022-12-24T00:10:06.399Z,604.5630
2022-12-24T00:10:17.525Z,608.9800
2022-12-24T00:10:28.696Z,607.3160
2022-12-24T00:10:39.801Z,610.6530
2022-12-24T00:10:50.928Z,607.3160
2022-12-24T00:11:01.983Z,605.6610
2022-12-24T00:11:13.054Z,606.2120
2022-12-24T00:11:24.144Z,608.4240
2022-12-24T00:11:35.212Z,608.9800
2022-12-24T00:11:46.259Z,604.5630
2022-12-24T00:11:57.328Z,606.2120
2022-12-24T00:12:08.386Z,608.9800
2022-12-24T00:12:19.446Z,611.2130
2022-12-24T00:12:30.517Z,612.3350
2022-12-24T00:12:41.594Z,610.6530
2022-12-24T00:12:52.641Z,610.6530
2022-12-24T00:13:03.727Z,609.5370
2022-12-24T00:13:14.797Z,613.4620
2022-12-24T00:13:25.861Z,613.4620
2022-12-24T00:13:36.920Z,611.2130
2022-12-24T00:13:47.998Z,612.8980
2022-12-24T00:13:59.075Z,614.0270
2022-12-24T00:14:10.159Z,615.1600
2022-12-24T00:14:21.210Z,614.0270
2022-12-24T00:14:32.294Z,617.4380
2022-12-24T00:14:43.348Z,612.8980
2022-12-24T00:14:54.388Z,611.7740
2022-12-24T00:15:05.469Z,615.1600
2022-12-24T00:15:16.550Z,610.6530
2022-12-24T00:15:27.606Z,614.0270
2022-12-24T00:15:38.711Z,614.5930
2022-12-24T00:15:49.772Z,614.5930
2022-12-24T00:16:00.857Z,615.1600
2022-12-24T00:16:11.913Z,618.5840
2022-12-24T00:16:23.066Z,619.7330
2022-12-24T00:16:34.196Z,615.1600
2022-12-24T00:16:45.310Z,617.4380
2022-12-24T00:16:56.360Z,618.5840
2022-12-24T00:17:07.454Z,621.4660
2022-12-24T00:17:18.551Z,619.7330
2022-12-24T00:17:29.627Z,621.4660
2022-12-24T00:17:40.701Z,622.0460
2022-12-24T00:17:51.776Z,624.3760
2022-12-24T00:18:02.849Z,623.2090
2022-12-24T00:18:13.908Z,623.7920
2022-12-24T00:18:24.999Z,631.4710
2022-12-24T00:18:41.567Z,621.4660
2022-12-24T00:18:53.030Z,616.8670
2022-12-24T00:19:04.090Z,619.7330
2022-12-24T00:19:15.172Z,619.7330
2022-12-24T00:19:26.262Z,620.8870
2022-12-24T00:19:37.347Z,623.7920
2022-12-24T00:19:48.410Z,623.2090
2022-12-24T00:19:59.484Z,625.5470
2022-12-24T00:20:10.539Z,626.7230
2022-12-24T00:20:21.612Z,626.1340
2022-12-24T00:20:32.695Z,624.9610
2022-12-24T00:20:43.788Z,628.4950
2022-12-24T00:20:54.861Z,626.1340
2022-12-24T00:21:05.931Z,626.7230
2022-12-24T00:21:17.028Z,625.5470
2022-12-24T00:21:28.080Z,632.6690
2022-12-24T00:21:39.125Z,633.2700
2022-12-24T00:21:50.185Z,633.8720
2022-12-24T00:22:01.263Z,633.8720
2022-12-24T00:22:12.332Z,633.8720
2022-12-24T00:22:23.356Z,632.6690
2022-12-24T00:22:34.424Z,635.6850
2022-12-24T00:22:45.512Z,636.2910
2022-12-24T00:22:56.558Z,636.8990
2022-12-24T00:23:07.636Z,636.8990
2022-12-24T00:23:18.699Z,639.9550
2022-12-24T00:23:29.760Z,638.7290
2022-12-24T00:23:40.862Z,638.7290
2022-12-24T00:23:51.914Z,641.8030
2022-12-24T00:24:02.990Z,640.5700
2022-12-24T00:24:14.079Z,636.8990
2022-12-24T00:24:25.118Z,639.9550
2022-12-24T00:24:36.187Z,639.3410
2022-12-24T00:24:47.241Z,644.2830
2022-12-24T00:24:58.322Z,645.5310
2022-12-24T00:25:09.377Z,646.1560
2022-12-24T00:25:20.447Z,644.9060
2022-12-24T00:25:31.509Z,643.6610
2022-12-24T00:25:42.585Z,646.7830
2022-12-24T00:25:53.673Z,653.7580
2022-12-24T00:26:04.742Z,647.4110
2022-12-24T00:26:15.813Z,650.5690
2022-12-24T00:26:26.909Z,649.9350
2022-12-24T00:26:37.964Z,643.0410
2022-12-24T00:26:49.038Z,647.4110
2022-12-24T00:27:00.110Z,643.6610
2022-12-24T00:27:11.158Z,650.5690
2022-12-24T00:27:22.231Z,649.9350
2022-12-24T00:27:33.312Z,652.4790
2022-12-24T00:27:44.384Z,653.7580
2022-12-24T00:27:55.443Z,651.2040
2022-12-24T00:28:06.514Z,654.4000
2022-12-24T00:28:17.561Z,656.3320
2022-12-24T00:28:28.641Z,652.4790
2022-12-24T00:28:39.679Z,655.0420
2022-12-24T00:28:50.751Z,655.0420
2022-12-24T00:29:01.827Z,660.2310
2022-12-24T00:29:12.877Z,656.9780
2022-12-24T00:29:23.925Z,653.7580
2022-12-24T00:29:34.957Z,660.2310
2022-12-24T00:29:46.038Z,656.3320
2022-12-24T00:29:57.094Z,658.2760
2022-12-24T00:30:08.169Z,658.9260
2022-12-24T00:30:19.269Z,658.9260
2022-12-24T00:30:30.364Z,662.8560
2022-12-24T00:30:41.422Z,656.9780
2022-12-24T00:30:52.557Z,662.1980
2022-12-24T00:31:03.725Z,662.8560
2022-12-24T00:31:14.996Z,657.6260
2022-12-24T00:31:26.437Z,664.1760
2022-12-24T00:31:37.531Z,662.8560
2022-12-24T00:31:48.597Z,665.5020
2022-12-24T00:31:59.658Z,665.5020
2022-12-24T00:32:10.728Z,662.8560
2022-12-24T00:32:21.803Z,667.5010
2022-12-24T00:32:32.873Z,665.5020
2022-12-24T00:32:43.919Z,667.5010
2022-12-24T00:32:54.977Z,664.1760
2022-12-24T00:33:06.034Z,666.8330
2022-12-24T00:33:22.373Z,668.8400
2022-12-24T00:33:34.089Z,658.9260
2022-12-24T00:33:45.161Z,662.8560
2022-12-24T00:33:56.260Z,661.5410
2022-12-24T00:34:07.312Z,665.5020
2022-12-24T00:34:18.389Z,666.8330
2022-12-24T00:34:29.456Z,661.5410
2022-12-24T00:34:40.527Z,664.8390
2022-12-24T00:34:51.592Z,668.8400
2022-12-24T00:35:02.681Z,669.5110
2022-12-24T00:35:13.722Z,669.5110
2022-12-24T00:35:24.806Z,670.8580
2022-12-24T00:35:35.868Z,669.5110
2022-12-24T00:35:46.932Z,669.5110
2022-12-24T00:35:57.998Z,673.5690
2022-12-24T00:36:09.099Z,673.5690
2022-12-24T00:36:20.161Z,670.8580
2022-12-24T00:36:31.196Z,671.5340
2022-12-24T00:36:42.267Z,673.5690
2022-12-24T00:36:53.333Z,672.8890
2022-12-24T00:37:04.409Z,672.8890
2022-12-24T00:37:15.477Z,670.8580
2022-12-24T00:37:26.566Z,674.9320
2022-12-24T00:37:37.628Z,684.6340
2022-12-24T00:37:48.701Z,673.5690
2022-12-24T00:37:59.767Z,677.6760
2022-12-24T00:38:10.819Z,669.5110
2022-12-24T00:38:21.897Z,676.3010
2022-12-24T00:38:32.991Z,673.5690
2022-12-24T00:38:44.011Z,673.5690
2022-12-24T00:38:55.108Z,674.9320
2022-12-24T00:39:06.159Z,678.3650
2022-12-24T00:39:17.216Z,680.4420
2022-12-24T00:39:28.287Z,680.4420
2022-12-24T00:39:39.362Z,681.8340
2022-12-24T00:39:50.441Z,677.6760
2022-12-24T00:40:01.512Z,676.3010
2022-12-24T00:40:12.587Z,677.6760
2022-12-24T00:40:23.656Z,683.2310
2022-12-24T00:40:34.726Z,681.8340
2022-12-24T00:40:45.787Z,683.2310
2022-12-24T00:40:56.852Z,683.2310
2022-12-24T00:41:07.919Z,684.6340
2022-12-24T00:41:18.992Z,683.2310
2022-12-24T00:41:30.075Z,677.6760
2022-12-24T00:41:41.127Z,681.8340
2022-12-24T00:41:52.183Z,681.8340
2022-12-24T00:42:03.242Z,683.9310
2022-12-24T00:42:14.307Z,685.3370
2022-12-24T00:42:25.391Z,684.6340
2022-12-24T00:42:36.440Z,682.5310
2022-12-24T00:42:47.508Z,686.0420
2022-12-24T00:42:58.577Z,684.6340
2022-12-24T00:43:09.647Z,680.4420
2022-12-24T00:43:20.728Z,684.6340
2022-12-24T00:43:31.821Z,690.3030
2022-12-24T00:43:42.868Z,686.0420
2022-12-24T00:43:53.933Z,687.4570
2022-12-24T00:44:05.028Z,689.5900
2022-12-24T00:44:16.119Z,687.4570
2022-12-24T00:44:27.227Z,688.8770
2022-12-24T00:44:38.287Z,687.4570
2022-12-24T00:44:49.347Z,688.8770
2022-12-24T00:45:00.407Z,685.3370
2022-12-24T00:45:11.467Z,688.8770
2022-12-24T00:45:22.732Z,689.5900
2022-12-24T00:45:33.755Z,688.8770
2022-12-24T00:45:44.858Z,691.7360
2022-12-24T00:45:55.910Z,693.8950
2022-12-24T00:46:07.008Z,689.5900
2022-12-24T00:46:18.153Z,694.6180
2022-12-24T00:46:29.326Z,690.3030
2022-12-24T00:46:40.538Z,693.8950
2022-12-24T00:46:51.649Z,693.8950
2022-12-24T00:47:06.867Z,691.7360
2022-12-24T00:47:19.697Z,683.9310
2022-12-24T00:47:30.764Z,686.7490
2022-12-24T00:47:41.844Z,686.0420
2022-12-24T00:47:52.899Z,688.1660
2022-12-24T00:48:03.974Z,683.9310
2022-12-24T00:48:15.044Z,688.8770
2022-12-24T00:48:26.120Z,691.7360
2022-12-24T00:48:37.189Z,691.7360
2022-12-24T00:48:48.253Z,690.3030
2022-12-24T00:48:59.343Z,691.7360
2022-12-24T00:49:10.403Z,692.4540
2022-12-24T00:49:21.487Z,689.5900
2022-12-24T00:49:32.548Z,693.1740
2022-12-24T00:49:43.605Z,694.6180
2022-12-24T00:49:54.684Z,688.8770
2022-12-24T00:50:05.747Z,697.5240
2022-12-24T00:50:16.821Z,697.5240
2022-12-24T00:50:27.877Z,700.4550
2022-12-24T00:50:39.028Z,694.6180
2022-12-24T00:50:50.190Z,698.9870
2022-12-24T00:51:01.335Z,696.0680
2022-12-24T00:51:12.430Z,698.9870
2022-12-24T00:51:23.537Z,693.1740
2022-12-24T00:51:34.664Z,696.0680
2022-12-24T00:51:45.728Z,693.1740
2022-12-24T00:51:56.792Z,697.5240
2022-12-24T00:52:07.858Z,696.0680
2022-12-24T00:52:18.936Z,701.1920
2022-12-24T00:52:29.997Z,694.6180
2022-12-24T00:52:41.043Z,696.7950
2022-12-24T00:52:52.100Z,697.5240
2022-12-24T00:53:04.277Z,698.2550
2022-12-24T00:53:15.319Z,699.7200
2022-12-24T00:53:26.397Z,701.9300
2022-12-24T00:53:37.448Z,699.7200
2022-12-24T00:53:48.509Z,697.5240
2022-12-24T00:53:59.610Z,696.0680
2022-12-24T00:54:10.706Z,697.5240
2022-12-24T00:54:21.772Z,701.9300
2022-12-24T00:54:32.850Z,701.9300
2022-12-24T00:54:43.907Z,701.9300
2022-12-24T00:54:54.958Z,701.1920
2022-12-24T00:55:06.027Z,703.4110
2022-12-24T00:55:17.111Z,702.6690
2022-12-24T00:55:28.203Z,702.6690
2022-12-24T00:55:39.270Z,701.9300
2022-12-24T00:55:50.325Z,708.6430
2022-12-24T00:56:01.408Z,704.1530
2022-12-24T00:56:12.491Z,707.1400
2022-12-24T00:56:23.559Z,703.4110
2022-12-24T00:56:34.655Z,708.6430
2022-12-24T00:56:45.741Z,709.3970
2022-12-24T00:56:56.798Z,704.8980
2022-12-24T00:57:07.859Z,705.6440
2022-12-24T00:57:18.931Z,707.8910
2022-12-24T00:57:30.011Z,704.8980
2022-12-24T00:57:41.081Z,705.6440
2022-12-24T00:57:52.145Z,706.3910
2022-12-24T00:58:03.170Z,709.3970
2022-12-24T00:58:14.228Z,706.3910
2022-12-24T00:58:25.296Z,710.9100
2022-12-24T00:58:36.356Z,704.8980
2022-12-24T00:58:47.420Z,707.1400
2022-12-24T00:58:58.512Z,707.1400
2022-12-24T00:59:09.555Z,710.9100
2022-12-24T00:59:20.604Z,709.3970
2022-12-24T00:59:31.671Z,709.3970
2022-12-24T00:59:42.759Z,707.8910
2022-12-24T00:59:53.837Z,705.6440
2022-12-24T01:00:04.918Z,708.6430
2022-12-24T01:00:16.044Z,708.6430
2022-12-24T01:00:27.091Z,710.1520
2022-12-24T01:00:38.151Z,710.1520
2022-12-24T01:00:49.207Z,709.3970
2022-12-24T01:01:00.376Z,713.1910
2022-12-24T01:01:11.611Z,710.9100
2022-12-24T01:01:23.001Z,715.4860
2022-12-24T01:01:34.504Z,711.6680
2022-12-24T01:01:45.858Z,712.4290
2022-12-24T01:01:57.204Z,706.3910
2022-12-24T01:02:08.795Z,712.4290
2022-12-24T01:02:20.370Z,713.1910
2022-12-24T01:02:31.907Z,710.1520
2022-12-24T01:02:43.367Z,711.6680
2022-12-24T01:02:54.749Z,710.9100
2022-12-24T01:03:06.100Z,707.8910
2022-12-24T01:03:17.283Z,710.9100
2022-12-24T01:03:28.400Z,713.9540
2022-12-24T01:03:39.532Z,709.3970
2022-12-24T01:03:50.708Z,715.4860
2022-12-24T01:04:01.773Z,712.4290
2022-12-24T01:04:12.831Z,711.6680
2022-12-24T01:04:23.925Z,713.9540
2022-12-24T01:04:35.002Z,711.6680
2022-12-24T01:04:46.055Z,712.4290
2022-12-24T01:04:57.116Z,714.7190
2022-12-24T01:05:08.177Z,713.9540
2022-12-24T01:05:19.228Z,717.0250
2022-12-24T01:05:30.327Z,717.7970
2022-12-24T01:05:41.356Z,713.9540
2022-12-24T01:05:52.431Z,714.7190
2022-12-24T01:06:03.587Z,717.0250
2022-12-24T01:06:14.651Z,717.7970
2022-12-24T01:06:25.722Z,717.0250
2022-12-24T01:06:36.782Z,718.5700
2022-12-24T01:06:47.836Z,717.7970
2022-12-24T01:06:58.953Z,714.7190
2022-12-24T01:07:10.026Z,713.9540
2022-12-24T01:07:21.077Z,717.0250
2022-12-24T01:07:32.116Z,713.9540
2022-12-24T01:07:43.181Z,721.6810
2022-12-24T01:07:54.258Z,719.3450
2022-12-24T01:08:05.386Z,717.0250
2022-12-24T01:08:16.438Z,718.5700
2022-12-24T01:08:27.511Z,717.7970
2022-12-24T01:08:38.670Z,714.7190
2022-12-24T01:08:49.709Z,727.1900
2022-12-24T01:09:00.793Z,721.6810
2022-12-24T01:09:11.859Z,721.6810
2022-12-24T01:09:22.916Z,718.5700
2022-12-24T01:09:33.975Z,719.3450
2022-12-24T01:09:45.040Z,719.3450
2022-12-24T01:09:56.130Z,715.4860
2022-12-24T01:10:07.171Z,724.8190
2022-12-24T01:10:18.221Z,720.1220
2022-12-24T01:10:29.294Z,721.6810
2022-12-24T01:10:40.375Z,720.1220
2022-12-24T01:10:51.439Z,720.1220
2022-12-24T01:11:02.527Z,724.8190
2022-12-24T01:11:13.603Z,724.8190
2022-12-24T01:11:24.637Z,724.8190
2022-12-24T01:11:35.707Z,716.2550
2022-12-24T01:11:46.828Z,722.4630
2022-12-24T01:11:57.880Z,723.2460
2022-12-24T01:12:08.969Z,720.1220
2022-12-24T01:12:20.061Z,717.7970
2022-12-24T01:12:31.109Z,726.3980
2022-12-24T01:12:42.284Z,724.0320
2022-12-24T01:12:53.327Z,725.6070
2022-12-24T01:13:04.431Z,721.6810
2022-12-24T01:13:15.475Z,727.1900
2022-12-24T01:13:26.548Z,724.8190
2022-12-24T01:13:37.660Z,721.6810
2022-12-24T01:13:48.721Z,723.2460
2022-12-24T01:13:59.804Z,723.2460
2022-12-24T01:14:10.884Z,726.3980
2022-12-24T01:14:21.959Z,725.6070
2022-12-24T01:14:33.062Z,727.9840
2022-12-24T01:14:44.136Z,725.6070
2022-12-24T01:14:55.208Z,724.0320
2022-12-24T01:15:06.270Z,726.3980
2022-12-24T01:15:17.331Z,727.1900
2022-12-24T01:15:28.412Z,724.8190
2022-12-24T01:15:39.509Z,730.3760
2022-12-24T01:15:50.612Z,721.6810
2022-12-24T01:16:01.749Z,727.9840
2022-12-24T01:16:12.873Z,722.4630
2022-12-24T01:16:23.979Z,727.9840
2022-12-24T01:16:35.096Z,723.2460
2022-12-24T01:16:46.202Z,726.3980
2022-12-24T01:16:57.268Z,726.3980
2022-12-24T01:17:08.351Z,730.3760
2022-12-24T01:17:19.491Z,727.9840
2022-12-24T01:17:30.568Z,731.1770
2022-12-24T01:17:41.639Z,726.3980
2022-12-24T01:17:52.687Z,724.8190
2022-12-24T01:18:03.789Z,727.1900
2022-12-24T01:18:14.847Z,729.5770
2022-12-24T01:18:25.952Z,727.1900
2022-12-24T01:18:36.996Z,732.7840
2022-12-24T01:18:48.059Z,729.5770
2022-12-24T01:18:59.128Z,729.5770
2022-12-24T01:19:10.189Z,731.9790
2022-12-24T01:19:21.247Z,729.5770
2022-12-24T01:19:32.317Z,730.3760
2022-12-24T01:19:43.405Z,726.3980
2022-12-24T01:19:54.480Z,733.5900
2022-12-24T01:20:05.552Z,731.1770
2022-12-24T01:20:16.642Z,730.3760
2022-12-24T01:20:27.707Z,732.7840
2022-12-24T01:20:38.782Z,729.5770
2022-12-24T01:20:49.845Z,726.3980
2022-12-24T01:21:00.946Z,727.1900
2022-12-24T01:21:12.095Z,730.3760
2022-12-24T01:21:23.130Z,733.5900
2022-12-24T01:21:34.200Z,732.7840
2022-12-24T01:21:45.256Z,731.1770
2022-12-24T01:21:56.306Z,732.7840
2022-12-24T01:22:07.382Z,731.9790
2022-12-24T01:22:18.469Z,733.5900
2022-12-24T01:22:29.569Z,731.9790
2022-12-24T01:22:40.658Z,729.5770
2022-12-24T01:22:51.708Z,734.3980
2022-12-24T01:23:02.769Z,731.9790
2022-12-24T01:23:13.846Z,734.3980
2022-12-24T01:23:24.907Z,736.0190
2022-12-24T01:23:35.975Z,731.9790
2022-12-24T01:23:47.046Z,733.5900
2022-12-24T01:23:58.109Z,729.5770
2022-12-24T01:24:09.172Z,728.7790
2022-12-24T01:24:20.234Z,731.1770
2022-12-24T01:24:31.295Z,736.0190
2022-12-24T01:24:42.384Z,732.7840
2022-12-24T01:24:53.442Z,734.3980
2022-12-24T01:25:04.507Z,734.3980
2022-12-24T01:25:15.600Z,733.5900
2022-12-24T01:25:26.659Z,734.3980
2022-12-24T01:25:37.727Z,736.0190
2022-12-24T01:25:48.800Z,736.8320
2022-12-24T01:25:59.872Z,737.6470
2022-12-24T01:26:10.947Z,736.8320
2022-12-24T01:26:22.011Z,733.5900
2022-12-24T01:26:33.068Z,737.6470
2022-12-24T01:26:44.135Z,738.4640
2022-12-24T01:26:55.216Z,736.0190
2022-12-24T01:27:06.249Z,736.0190
2022-12-24T01:27:17.307Z,737.6470
2022-12-24T01:27:28.385Z,736.0190
2022-12-24T01:27:39.494Z,736.8320
2022-12-24T01:27:50.565Z,736.0190
2022-12-24T01:28:01.633Z,745.8980
2022-12-24T01:28:12.685Z,736.8320
2022-12-24T01:28:23.751Z,730.3760
2022-12-24T01:28:34.829Z,737.6470
2022-12-24T01:28:45.899Z,739.2830
2022-12-24T01:28:56.964Z,736.0190
2022-12-24T01:29:08.041Z,736.8320
2022-12-24T01:29:19.132Z,740.1030
2022-12-24T01:29:30.207Z,736.8320
2022-12-24T01:29:41.267Z,736.0190
2022-12-24T01:29:52.333Z,738.4640
2022-12-24T01:30:03.401Z,737.6470
2022-12-24T01:30:14.471Z,741.7500
2022-12-24T01:30:25.538Z,737.6470
2022-12-24T01:30:36.597Z,740.9260
2022-12-24T01:30:47.707Z,739.2830
2022-12-24T01:30:58.842Z,736.0190
2022-12-24T01:31:10.017Z,741.7500
2022-12-24T01:31:21.127Z,737.6470
2022-12-24T01:31:32.332Z,739.2830
2022-12-24T01:31:43.545Z,739.2830
2022-12-24T01:31:54.734Z,742.5760
2022-12-24T01:32:05.807Z,740.1030
2022-12-24T01:32:16.889Z,742.5760
2022-12-24T01:32:27.970Z,746.2270
2022-12-24T01:32:39.040Z,736.8320
2022-12-24T01:32:50.136Z,745.0650
2022-12-24T01:33:01.207Z,742.5760
2022-12-24T01:33:12.280Z,740.9260
2022-12-24T01:33:23.309Z,746.6440
2022-12-24T01:33:34.369Z,744.2330
2022-12-24T01:33:45.431Z,744.2330
2022-12-24T01:33:56.655Z,744.2330
2022-12-24T01:34:07.743Z,747.0620
2022-12-24T01:34:18.815Z,745.0650
2022-12-24T01:34:29.904Z,744.2330
2022-12-24T01:34:40.981Z,740.9260
2022-12-24T01:34:52.082Z,740.9260
2022-12-24T01:35:03.177Z,741.7500
2022-12-24T01:35:14.242Z,746.2270
2022-12-24T01:35:25.327Z,741.7500
2022-12-24T01:35:36.421Z,744.2330
2022-12-24T01:35:47.533Z,746.6440
2022-12-24T01:35:58.581Z,745.8980
2022-12-24T01:36:09.685Z,742.5760
2022-12-24T01:36:20.733Z,744.2330
2022-12-24T01:36:31.805Z,742.5760
2022-12-24T01:36:42.888Z,742.5760
2022-12-24T01:36:53.941Z,739.2830
2022-12-24T01:37:05.144Z,743.4040
2022-12-24T01:37:16.211Z,745.8980
2022-12-24T01:37:27.280Z,747.0620
2022-12-24T01:37:38.358Z,742.5760
2022-12-24T01:37:49.432Z,746.6440
2022-12-24T01:38:00.537Z,747.0620
2022-12-24T01:38:11.610Z,744.2330
2022-12-24T01:38:22.663Z,748.7380
2022-12-24T01:38:33.741Z,749.1580
2022-12-24T01:38:44.826Z,749.5790
2022-12-24T01:38:55.917Z,740.9260
2022-12-24T01:39:06.999Z,749.5790
2022-12-24T01:39:18.061Z,746.6440
2022-12-24T01:39:29.165Z,748.3180
2022-12-24T01:39:40.232Z,747.4800
2022-12-24T01:39:51.289Z,747.4800
2022-12-24T01:40:02.375Z,744.2330
2022-12-24T01:40:13.411Z,745.8980
2022-12-24T01:40:24.482Z,746.2270
2022-12-24T01:40:35.593Z,747.4800
2022-12-24T01:40:46.660Z,748.3180
2022-12-24T01:40:57.733Z,749.1580
2022-12-24T01:41:08.823Z,748.3180
2022-12-24T01:41:19.899Z,751.6890
2022-12-24T01:41:30.967Z,750.0000
2022-12-24T01:41:42.027Z,747.4800
2022-12-24T01:41:53.108Z,750.8440
2022-12-24T01:42:04.197Z,752.1130
2022-12-24T01:42:15.231Z,750.0000
2022-12-24T01:42:26.306Z,752.9610
2022-12-24T01:42:37.375Z,750.8440
2022-12-24T01:42:48.445Z,750.0000
2022-12-24T01:42:59.518Z,749.1580
2022-12-24T01:43:10.710Z,750.4220
2022-12-24T01:43:21.787Z,752.5370
2022-12-24T01:43:32.857Z,751.6890
2022-12-24T01:43:43.918Z,748.3180
2022-12-24T01:43:54.985Z,752.5370
2022-12-24T01:44:06.037Z,751.6890
2022-12-24T01:44:17.098Z,752.5370
2022-12-24T01:44:33.414Z,750.8440
2022-12-24T01:44:45.127Z,744.2330
2022-12-24T01:44:56.203Z,740.9260
2022-12-24T01:45:07.273Z,748.3180
2022-12-24T01:45:18.326Z,749.1580
2022-12-24T01:45:29.392Z,748.3180
2022-12-24T01:45:40.470Z,748.3180
2022-12-24T01:45:51.542Z,748.7380
2022-12-24T01:46:02.643Z,747.0620
2022-12-24T01:46:13.727Z,747.4800
2022-12-24T01:46:24.863Z,751.6890
2022-12-24T01:46:35.970Z,748.3180
2022-12-24T01:46:47.113Z,749.5790
2022-12-24T01:46:58.261Z,748.3180
2022-12-24T01:47:09.396Z,749.1580
2022-12-24T01:47:20.442Z,751.6890
2022-12-24T01:47:31.524Z,751.6890
2022-12-24T01:47:42.610Z,752.1130
2022-12-24T01:47:53.682Z,753.3860
2022-12-24T01:48:04.746Z,750.4220
2022-12-24T01:48:15.995Z,751.6890
2022-12-24T01:48:27.068Z,750.4220
2022-12-24T01:48:38.146Z,752.5370
2022-12-24T01:48:49.207Z,754.2370
2022-12-24T01:49:00.328Z,746.6440
2022-12-24T01:49:11.368Z,756.3740
2022-12-24T01:49:22.430Z,754.2370
2022-12-24T01:49:33.498Z,752.5370
2022-12-24T01:49:44.551Z,744.2330
2022-12-24T01:49:55.649Z,750.8440
2022-12-24T01:50:06.716Z,750.0000
2022-12-24T01:50:17.795Z,753.3860
2022-12-24T01:50:28.883Z,753.3860
2022-12-24T01:50:40.002Z,751.2660
2022-12-24T01:50:51.109Z,753.3860
2022-12-24T01:51:02.233Z,748.3180
2022-12-24T01:51:13.316Z,755.0900
2022-12-24T01:51:24.400Z,754.6640
2022-12-24T01:51:35.490Z,750.4220
2022-12-24T01:51:46.588Z,747.0620
2022-12-24T01:51:57.676Z,754.2370
2022-12-24T01:52:08.752Z,752.5370
2022-12-24T01:52:19.817Z,750.8440
2022-12-24T01:52:30.881Z,753.8110
2022-12-24T01:52:41.960Z,754.6640
2022-12-24T01:52:53.019Z,754.2370
2022-12-24T01:53:04.096Z,755.0900
2022-12-24T01:53:15.172Z,751.6890
2022-12-24T01:53:26.257Z,758.5230
2022-12-24T01:53:37.348Z,761.9860
2022-12-24T01:53:48.402Z,749.5790
2022-12-24T01:53:59.470Z,757.6620
2022-12-24T01:54:10.563Z,757.6620
2022-12-24T01:54:21.600Z,755.9460
2022-12-24T01:54:32.694Z,757.6620
2022-12-24T01:54:43.756Z,755.0900
2022-12-24T01:54:54.819Z,755.9460
2022-12-24T01:55:05.884Z,756.8030
2022-12-24T01:55:16.949Z,754.2370
2022-12-24T01:55:28.032Z,755.9460
2022-12-24T01:55:39.131Z,757.6620
2022-12-24T01:55:50.219Z,759.3860
2022-12-24T01:56:01.455Z,761.1170
2022-12-24T01:56:12.638Z,755.0900
2022-12-24T01:56:23.712Z,755.9460
2022-12-24T01:56:34.785Z,757.2320
2022-12-24T01:56:45.874Z,754.2370
2022-12-24T01:56:56.978Z,759.3860
2022-12-24T01:57:08.104Z,757.6620
2022-12-24T01:57:19.282Z,758.5230
2022-12-24T01:57:30.443Z,757.2320
2022-12-24T01:57:41.724Z,758.5230
2022-12-24T01:57:52.802Z,759.8180
2022-12-24T01:58:03.882Z,759.3860
2022-12-24T01:58:14.962Z,758.5230
2022-12-24T01:58:26.044Z,758.5230
2022-12-24T01:58:37.138Z,760.2510
2022-12-24T01:58:48.230Z,759.3860
2022-12-24T01:58:59.282Z,760.6840
2022-12-24T01:59:10.347Z,757.2320
2022-12-24T01:59:21.429Z,757.6620
2022-12-24T01:59:32.498Z,760.6840
2022-12-24T01:59:43.583Z,760.2510
2022-12-24T01:59:54.666Z,756.3740
2022-12-24T02:00:05.717Z,759.3860
2022-12-24T02:00:16.800Z,758.5230
2022-12-24T02:00:27.821Z,755.5180
2022-12-24T02:00:38.916Z,764.1670
2022-12-24T02:00:49.973Z,761.9860
2022-12-24T02:01:01.047Z,761.1170
2022-12-24T02:01:12.277Z,762.4210
2022-12-24T02:01:23.468Z,764.6050
2022-12-24T02:01:34.869Z,758.5230
2022-12-24T02:01:46.303Z,760.2510
2022-12-24T02:01:57.550Z,758.0920
2022-12-24T02:02:08.756Z,755.9460
2022-12-24T02:02:20.100Z,760.6840
2022-12-24T02:02:31.589Z,762.8570
2022-12-24T02:02:43.008Z,764.1670
2022-12-24T02:02:54.180Z,759.3860
2022-12-24T02:03:05.777Z,759.8180
2022-12-24T02:03:17.234Z,760.6840
2022-12-24T02:03:28.438Z,757.6620
2022-12-24T02:03:39.673Z,761.9860
2022-12-24T02:03:50.887Z,758.9540
2022-12-24T02:04:02.030Z,758.9540
2022-12-24T02:04:13.091Z,759.3860
2022-12-24T02:04:24.179Z,755.9460
2022-12-24T02:04:35.251Z,762.8570
2022-12-24T02:04:46.322Z,761.1170
2022-12-24T02:04:57.393Z,761.9860
2022-12-24T02:05:08.475Z,761.9860
2022-12-24T02:05:19.520Z,761.1170
2022-12-24T02:05:30.597Z,758.0920
2022-12-24T02:05:41.677Z,761.9860
2022-12-24T02:05:52.747Z,758.5230
2022-12-24T02:06:03.810Z,761.9860
2022-12-24T02:06:14.925Z,759.8180
2022-12-24T02:06:25.998Z,761.1170
2022-12-24T02:06:37.042Z,764.1670
2022-12-24T02:06:48.121Z,762.8570
2022-12-24T02:06:59.206Z,760.6840
2022-12-24T02:07:10.281Z,761.1170
2022-12-24T02:07:21.384Z,765.4820
2022-12-24T02:07:32.439Z,761.1170
2022-12-24T02:07:43.502Z,764.6050
2022-12-24T02:07:54.577Z,764.1670
2022-12-24T02:08:05.650Z,769.8960
2022-12-24T02:08:16.716Z,759.3860
2022-12-24T02:08:27.761Z,761.9860
2022-12-24T02:08:38.846Z,763.2930
2022-12-24T02:08:49.931Z,765.0430
2022-12-24T02:09:01.030Z,768.1240
2022-12-24T02:09:12.082Z,764.6050
2022-12-24T02:09:23.144Z,768.5660
2022-12-24T02:09:34.225Z,764.6050
2022-12-24T02:09:45.291Z,766.3610
2022-12-24T02:09:56.369Z,767.2410
2022-12-24T02:10:07.447Z,765.4820
2022-12-24T02:10:18.507Z,761.5520
2022-12-24T02:10:29.577Z,766.8010
2022-12-24T02:10:40.651Z,766.8010
2022-12-24T02:10:51.725Z,765.4820